Time;durP1;ratioP1;P1;durP2;ratioP2;P2;SDS_P1;SDS_P2;PMS_P1;PMS_P2;Temp;Humidity;BMP_temperature;BMP_pressure;BME280_temperature;BME280_humidity;BME280_pressure;Samples;Min_cycle;Max_cycle;Signal;HPM_P1;HPM_P2
2021/12/20 00:00:55;;;;;;;18.10;10.07;;;7.80;99.90;;;;;;5053711;28;20198;-69
2021/12/20 00:03:21;;;;;;;12.93;9.73;;;7.80;99.90;;;;;;5053334;28;20174;-68
2021/12/20 00:05:47;;;;;;;15.55;10.23;;;7.80;99.90;;;;;;5053404;28;20186;-69
2021/12/20 00:08:13;;;;;;;13.00;9.52;;;7.80;99.90;;;;;;5053310;28;20166;-67
2021/12/20 00:10:38;;;;;;;14.02;10.05;;;7.80;99.90;;;;;;5053175;28;20567;-69
2021/12/20 00:13:04;;;;;;;15.02;10.13;;;7.80;99.90;;;;;;5053288;28;20176;-69
2021/12/20 00:15:30;;;;;;;15.93;9.80;;;7.80;99.90;;;;;;5053099;28;20260;-69
2021/12/20 00:17:55;;;;;;;12.43;8.52;;;7.80;99.90;;;;;;5054129;28;20179;-69
2021/12/20 00:20:21;;;;;;;13.50;9.23;;;7.80;99.90;;;;;;5057320;28;20560;-68
2021/12/20 00:22:47;;;;;;;14.20;9.05;;;7.90;99.90;;;;;;5057271;28;20176;-69
2021/12/20 00:25:14;;;;;;;15.73;9.38;;;7.80;99.90;;;;;;5057169;28;20170;-68
2021/12/20 00:27:40;;;;;;;14.70;9.18;;;7.70;99.90;;;;;;5057168;28;20168;-69
2021/12/20 00:30:08;;;;;;;13.48;9.38;;;7.70;99.90;;;;;;5055498;28;20634;-68
2021/12/20 00:32:34;;;;;;;14.38;9.35;;;7.80;99.90;;;;;;5057147;28;20225;-68
2021/12/20 00:34:59;;;;;;;15.85;9.48;;;7.70;99.90;;;;;;5056927;28;20225;-69
2021/12/20 00:40:22;;;;;;;13.25;9.25;;;7.80;99.90;;;;;;5057117;28;20224;-68
2021/12/20 00:42:53;;;;;;;17.48;10.93;;;7.70;99.90;;;;;;5056845;28;20262;-65
2021/12/20 00:45:21;;;;;;;17.20;10.98;;;7.70;99.90;;;;;;5056620;28;20184;-69
2021/12/20 00:47:47;;;;;;;14.20;10.32;;;7.80;99.90;;;;;;5056943;28;20236;-68
2021/12/20 00:50:15;;;;;;;16.20;10.68;;;7.80;99.90;;;;;;5056650;28;20199;-68
2021/12/20 00:52:41;;;;;;;15.25;10.63;;;7.70;99.90;;;;;;5056727;28;20175;-68
2021/12/20 00:55:08;;;;;;;14.23;10.90;;;7.80;99.90;;;;;;5056533;28;20200;-69
2021/12/20 00:57:34;;;;;;;16.33;10.02;;;7.80;99.90;;;;;;5056599;28;20269;-68
2021/12/20 01:00:00;;;;;;;15.80;10.57;;;7.80;99.90;;;;;;5056243;28;20183;-67
2021/12/20 01:02:26;;;;;;;16.17;10.90;;;7.80;99.90;;;;;;5056201;28;20652;-68
2021/12/20 01:04:55;;;;;;;14.25;10.77;;;7.80;99.90;;;;;;5056488;28;20205;-69
2021/12/20 01:07:21;;;;;;;17.15;12.07;;;7.80;99.90;;;;;;5056694;28;20175;-68
2021/12/20 01:09:46;;;;;;;15.38;11.18;;;7.80;99.90;;;;;;5056257;28;20555;-69
2021/12/20 01:12:19;;;;;;;17.83;12.48;;;7.80;99.90;;;;;;5055992;28;20697;-68
2021/12/20 01:14:46;;;;;;;17.45;12.38;;;7.80;99.90;;;;;;5055850;28;20191;-69
2021/12/20 01:17:11;;;;;;;19.25;11.95;;;7.80;99.90;;;;;;5056469;28;20190;-65
2021/12/20 01:19:38;;;;;;;16.33;11.75;;;7.80;99.90;;;;;;5056375;28;20179;-68
2021/12/20 01:22:05;;;;;;;17.52;11.63;;;7.80;99.90;;;;;;5056198;28;20179;-68
2021/12/20 01:24:32;;;;;;;18.58;12.35;;;7.90;99.90;;;;;;5055002;28;20475;-67
2021/12/20 01:26:58;;;;;;;18.15;12.15;;;7.80;99.90;;;;;;5056120;28;20171;-69
2021/12/20 01:29:23;;;;;;;13.85;12.25;;;7.80;99.90;;;;;;5055753;28;20202;-68
2021/12/20 01:31:50;;;;;;;16.10;12.43;;;7.80;99.90;;;;;;5056128;28;20183;-68
2021/12/20 01:34:16;;;;;;;16.15;12.80;;;7.80;99.90;;;;;;5055969;28;20576;-68
2021/12/20 01:36:45;;;;;;;14.63;11.57;;;7.80;99.90;;;;;;5055659;28;20246;-69
2021/12/20 01:39:11;;;;;;;20.80;13.02;;;7.70;99.90;;;;;;5054418;28;20698;-69
2021/12/20 01:41:41;;;;;;;18.52;13.70;;;7.60;99.90;;;;;;5055778;28;20226;-68
2021/12/20 01:44:08;;;;;;;17.55;12.48;;;7.80;99.90;;;;;;5055715;28;20265;-68
2021/12/20 01:46:34;;;;;;;17.52;11.90;;;7.70;99.90;;;;;;5055339;28;20632;-68
2021/12/20 01:49:01;;;;;;;16.15;12.27;;;7.60;99.90;;;;;;5055635;28;20270;-65
2021/12/20 01:53:57;;;;;;;14.30;11.80;;;7.60;99.90;;;;;;5055583;28;20194;-68
2021/12/20 01:56:23;;;;;;;14.45;12.13;;;7.60;99.90;;;;;;5055550;28;20250;-68
2021/12/20 01:58:48;;;;;;;19.30;12.93;;;7.70;99.90;;;;;;5055219;28;20219;-68
2021/12/20 02:03:43;;;;;;;16.35;12.70;;;7.70;99.90;;;;;;5055376;28;20229;-68
2021/12/20 02:06:24;;;;;;;15.27;11.85;;;7.80;99.90;;;;;;5055425;28;20171;-69
2021/12/20 02:08:50;;;;;;;15.20;13.50;;;7.70;99.90;;;;;;5055396;28;20254;-68
2021/12/20 02:11:19;;;;;;;13.75;11.82;;;7.70;99.90;;;;;;5055390;28;20301;-68
2021/12/20 02:13:45;;;;;;;14.32;12.88;;;7.70;99.90;;;;;;5055236;28;20174;-69
2021/12/20 02:16:10;;;;;;;16.17;12.25;;;7.70;99.90;;;;;;5055051;28;20194;-68
2021/12/20 02:18:36;;;;;;;15.63;12.80;;;7.80;99.90;;;;;;5055107;28;20643;-68
2021/12/20 02:21:04;;;;;;;16.38;12.48;;;7.80;99.90;;;;;;5055094;28;20179;-68
2021/12/20 02:23:29;;;;;;;12.77;11.48;;;7.80;99.90;;;;;;5055017;28;20179;-69
2021/12/20 02:25:55;;;;;;;17.13;12.38;;;7.80;99.90;;;;;;5054978;28;20187;-69
2021/12/20 02:28:23;;;;;;;15.93;11.75;;;7.80;99.90;;;;;;5054658;28;20701;-68
2021/12/20 02:38:59;;;;;;;15.77;12.68;;;7.80;99.90;;;;;;5054776;28;20511;-67
2021/12/20 02:41:30;;;;;;;18.17;13.05;;;7.80;99.90;;;;;;5054003;28;20530;-68
2021/12/20 02:44:00;;;;;;;15.38;12.48;;;7.70;99.90;;;;;;5054762;28;20171;-69
2021/12/20 02:49:13;;;;;;;15.45;13.73;;;7.60;99.90;;;;;;5054562;28;20170;-68
2021/12/20 02:51:40;;;;;;;16.70;13.43;;;7.70;99.90;;;;;;5054388;28;20206;-68
2021/12/20 02:54:08;;;;;;;15.60;13.27;;;7.70;99.90;;;;;;5054420;28;20183;-69
2021/12/20 02:56:35;;;;;;;14.52;12.43;;;7.70;99.90;;;;;;5054092;28;20656;-69
2021/12/20 02:59:01;;;;;;;15.35;13.07;;;7.70;99.90;;;;;;5054301;28;20638;-68
2021/12/20 03:01:27;;;;;;;14.35;12.25;;;7.70;99.90;;;;;;5054199;28;20317;-69
2021/12/20 03:03:55;;;;;;;15.80;12.55;;;7.80;99.90;;;;;;5054164;28;20223;-69
2021/12/20 03:06:27;;;;;;;15.52;12.65;;;7.80;99.90;;;;;;5054167;28;20186;-68
2021/12/20 03:08:55;;;;;;;19.42;12.73;;;7.80;99.90;;;;;;5054124;28;20179;-69
2021/12/20 03:11:24;;;;;;;15.02;12.77;;;7.80;99.90;;;;;;5054101;28;20195;-68
2021/12/20 03:13:54;;;;;;;21.52;12.70;;;7.80;99.90;;;;;;5054119;28;20328;-68
2021/12/20 03:16:20;;;;;;;13.13;11.57;;;7.80;99.90;;;;;;5054005;28;20622;-69
2021/12/20 03:18:46;;;;;;;13.20;11.77;;;7.70;99.90;;;;;;5054273;28;20306;-69
2021/12/20 03:21:11;;;;;;;14.45;12.20;;;7.80;99.90;;;;;;5053993;28;20210;-66
2021/12/20 03:23:38;;;;;;;13.30;11.38;;;7.80;99.90;;;;;;5053924;28;20254;-68
2021/12/20 03:26:06;;;;;;;13.70;11.82;;;7.70;99.90;;;;;;5053877;28;20186;-68
2021/12/20 03:28:32;;;;;;;13.73;11.85;;;7.70;99.90;;;;;;5054111;28;20252;-69
2021/12/20 03:30:57;;;;;;;13.77;12.25;;;7.70;99.90;;;;;;5053758;28;20733;-68
2021/12/20 03:33:23;;;;;;;14.73;11.27;;;7.70;99.90;;;;;;5053794;28;20599;-69
2021/12/20 03:35:49;;;;;;;11.77;10.55;;;7.70;99.90;;;;;;5053932;28;20175;-69
2021/12/20 03:38:15;;;;;;;14.40;12.10;;;7.80;99.90;;;;;;5053827;28;20176;-69
2021/12/20 03:40:40;;;;;;;13.45;10.43;;;7.80;99.90;;;;;;5053634;28;20175;-69
2021/12/20 03:43:09;;;;;;;12.27;10.40;;;7.70;99.90;;;;;;5053624;28;20171;-69
2021/12/20 03:45:36;;;;;;;14.20;10.40;;;7.70;99.90;;;;;;5053557;28;20188;-69
2021/12/20 03:48:01;;;;;;;12.48;10.05;;;7.70;99.90;;;;;;5053689;28;20186;-68
2021/12/20 03:50:27;;;;;;;12.07;10.10;;;7.70;99.90;;;;;;5053463;28;20207;-69
2021/12/20 03:52:53;;;;;;;12.05;10.55;;;7.70;99.90;;;;;;5053414;28;20233;-69
2021/12/20 03:55:19;;;;;;;11.50;10.30;;;7.60;99.90;;;;;;5053487;28;20205;-69
2021/12/20 03:57:45;;;;;;;10.35;9.15;;;7.60;99.90;;;;;;5053412;28;20201;-68
2021/12/20 04:00:13;;;;;;;12.40;8.75;;;7.70;99.90;;;;;;5053543;28;20175;-68
2021/12/20 04:02:43;;;;;;;13.50;8.75;;;7.60;99.90;;;;;;5053378;28;20164;-69
2021/12/20 04:05:10;;;;;;;9.38;7.53;;;7.60;99.90;;;;;;5052968;28;20550;-69
2021/12/20 04:07:35;;;;;;;9.50;7.35;;;7.60;99.90;;;;;;5053335;28;20190;-67
2021/12/20 04:10:01;;;;;;;8.48;6.38;;;7.60;99.90;;;;;;5053202;28;20214;-68
2021/12/20 04:12:27;;;;;;;9.05;6.07;;;7.70;99.90;;;;;;5053318;28;20228;-68
2021/12/20 04:14:52;;;;;;;7.63;5.88;;;7.60;99.90;;;;;;5052034;28;20185;-68
2021/12/20 04:17:18;;;;;;;7.30;5.60;;;7.60;99.90;;;;;;5053538;28;20211;-68
2021/12/20 04:19:44;;;;;;;6.20;5.60;;;7.70;99.90;;;;;;5051999;28;20270;-69
2021/12/20 04:22:09;;;;;;;7.25;6.35;;;7.60;99.90;;;;;;5053210;28;20575;-69
2021/12/20 04:24:38;;;;;;;9.02;6.32;;;7.60;99.90;;;;;;5053198;28;20176;-67
2021/12/20 04:27:04;;;;;;;6.65;5.93;;;7.60;99.90;;;;;;5053168;28;20183;-68
2021/12/20 04:29:30;;;;;;;6.32;5.45;;;7.50;99.90;;;;;;5052797;28;20532;-69
2021/12/20 04:31:55;;;;;;;6.50;5.10;;;7.60;99.90;;;;;;5053125;28;20329;-69
2021/12/20 04:34:21;;;;;;;7.05;5.07;;;7.50;99.90;;;;;;5052787;28;20202;-69
2021/12/20 04:36:47;;;;;;;7.20;4.68;;;7.50;99.90;;;;;;5053082;28;20202;-69
2021/12/20 04:39:17;;;;;;;5.30;4.47;;;7.60;99.90;;;;;;5053259;28;20642;-69
2021/12/20 04:41:43;;;;;;;9.18;4.40;;;7.50;99.90;;;;;;5053244;28;20183;-68
2021/12/20 04:44:09;;;;;;;7.00;4.38;;;7.50;99.90;;;;;;5052708;28;20645;-69
2021/12/20 04:46:34;;;;;;;11.27;3.88;;;7.40;99.90;;;;;;5053177;28;20186;-69
2021/12/20 04:49:00;;;;;;;7.50;3.80;;;7.40;99.90;;;;;;5052904;28;20176;-68
2021/12/20 04:51:26;;;;;;;10.27;4.10;;;7.40;99.90;;;;;;5052606;28;20225;-68
2021/12/20 04:53:51;;;;;;;10.55;3.80;;;7.30;99.90;;;;;;5052568;28;20182;-69
2021/12/20 04:56:17;;;;;;;10.82;3.97;;;7.20;99.90;;;;;;5052904;28;20236;-68
2021/12/20 04:58:42;;;;;;;12.10;4.53;;;7.20;99.90;;;;;;5052904;28;20237;-68
2021/12/20 05:01:08;;;;;;;9.05;3.78;;;7.30;99.90;;;;;;5052849;28;20183;-69
2021/12/20 05:03:34;;;;;;;7.88;3.35;;;7.30;99.90;;;;;;5053059;28;20531;-69
2021/12/20 05:06:00;;;;;;;13.95;4.18;;;7.30;99.90;;;;;;5056494;28;20261;-67
2021/12/20 05:08:34;;;;;;;8.77;3.33;;;7.30;99.90;;;;;;5056460;28;20286;-65
2021/12/20 05:11:01;;;;;;;8.45;3.63;;;7.30;99.90;;;;;;5056388;28;20199;-68
2021/12/20 05:13:27;;;;;;;10.23;3.67;;;7.20;99.90;;;;;;5056342;28;20187;-68
2021/12/20 05:15:52;;;;;;;9.75;3.80;;;7.20;99.90;;;;;;5056161;28;20274;-69
2021/12/20 05:18:18;;;;;;;11.15;3.45;;;7.20;99.90;;;;;;5056386;28;20561;-68
2021/12/20 05:20:44;;;;;;;12.55;4.07;;;7.20;99.90;;;;;;5056260;28;20628;-69
2021/12/20 05:23:11;;;;;;;10.88;3.45;;;7.20;99.90;;;;;;5056221;28;20202;-69
2021/12/20 05:25:38;;;;;;;12.43;3.67;;;7.30;99.90;;;;;;5056213;28;20244;-69
2021/12/20 05:28:05;;;;;;;12.57;3.92;;;7.20;99.90;;;;;;5056123;28;20525;-69
2021/12/20 05:30:31;;;;;;;11.05;3.63;;;7.20;99.90;;;;;;5055980;28;20206;-69
2021/12/20 05:32:57;;;;;;;10.15;3.35;;;7.20;99.90;;;;;;5055696;28;20604;-69
2021/12/20 05:35:23;;;;;;;11.95;3.67;;;7.10;99.90;;;;;;5056016;28;20168;-69
2021/12/20 05:37:49;;;;;;;10.63;3.63;;;7.20;99.90;;;;;;5055895;28;20199;-68
2021/12/20 05:40:15;;;;;;;13.20;3.75;;;7.20;99.90;;;;;;5055868;28;20213;-69
2021/12/20 05:42:42;;;;;;;12.63;3.10;;;7.10;99.90;;;;;;5056082;28;20254;-69
2021/12/20 05:45:09;;;;;;;13.88;3.70;;;7.10;99.90;;;;;;5055768;28;20222;-69
2021/12/20 05:47:35;;;;;;;9.77;3.30;;;7.10;99.90;;;;;;5055636;28;20231;-69
2021/12/20 05:50:01;;;;;;;13.30;3.80;;;7.20;99.90;;;;;;5055601;28;20203;-68
2021/12/20 05:52:30;;;;;;;14.05;4.20;;;7.20;99.90;;;;;;5055367;28;20176;-69
2021/12/20 05:54:56;;;;;;;17.50;4.20;;;7.10;99.90;;;;;;5055638;28;20716;-69
2021/12/20 05:57:22;;;;;;;14.13;4.10;;;7.10;99.90;;;;;;5054287;28;20181;-69
2021/12/20 05:59:48;;;;;;;12.25;3.88;;;7.20;99.90;;;;;;5055406;28;20632;-68
2021/12/20 06:02:14;;;;;;;11.20;3.85;;;7.20;99.90;;;;;;5055441;28;20221;-69
2021/12/20 06:04:39;;;;;;;12.60;3.83;;;7.30;99.90;;;;;;5054996;28;20620;-70
2021/12/20 06:07:05;;;;;;;8.95;3.35;;;7.30;99.90;;;;;;5055305;28;20178;-66
2021/12/20 06:09:31;;;;;;;12.90;3.80;;;7.30;99.90;;;;;;5054839;28;20198;-67
2021/12/20 06:11:59;;;;;;;16.33;4.20;;;7.30;99.90;;;;;;5054394;28;20159;-66
2021/12/20 06:14:28;;;;;;;12.30;3.40;;;7.30;99.90;;;;;;5055133;28;20198;-66
2021/12/20 06:16:57;;;;;;;14.35;4.28;;;7.30;99.90;;;;;;5053694;28;20194;-66
2021/12/20 06:19:24;;;;;;;11.30;3.78;;;7.30;99.90;;;;;;5054734;28;20518;-66
2021/12/20 06:21:51;;;;;;;13.57;3.97;;;7.30;99.90;;;;;;5055020;28;20566;-66
2021/12/20 06:24:17;;;;;;;16.60;4.25;;;7.30;99.90;;;;;;5054777;28;20661;-66
2021/12/20 06:26:43;;;;;;;11.15;3.85;;;7.20;99.90;;;;;;5054974;28;20617;-66
2021/12/20 06:29:08;;;;;;;14.98;4.32;;;7.30;99.90;;;;;;5054940;28;20187;-66
2021/12/20 06:31:34;;;;;;;11.13;3.38;;;7.20;99.90;;;;;;5054943;28;20264;-66
2021/12/20 06:34:00;;;;;;;13.10;4.60;;;7.20;99.90;;;;;;5053584;28;20303;-66
2021/12/20 06:36:28;;;;;;;13.23;3.90;;;7.20;99.90;;;;;;5050717;28;20532;-65
2021/12/20 06:38:56;;;;;;;12.63;3.65;;;7.20;99.90;;;;;;5051878;28;20179;-65
2021/12/20 06:41:22;;;;;;;16.65;4.10;;;7.20;99.90;;;;;;5050622;28;20273;-66
2021/12/20 06:43:48;;;;;;;14.98;3.78;;;7.20;99.90;;;;;;5054501;28;20274;-66
2021/12/20 06:46:15;;;;;;;11.07;3.97;;;7.10;99.90;;;;;;5054179;28;20266;-66
2021/12/20 06:48:41;;;;;;;13.27;4.40;;;7.20;99.90;;;;;;5054175;28;20175;-66
2021/12/20 06:51:07;;;;;;;15.07;4.22;;;7.10;99.90;;;;;;5054319;28;20225;-66
2021/12/20 06:53:32;;;;;;;17.33;4.18;;;7.20;99.90;;;;;;5054379;28;20551;-66
2021/12/20 06:55:58;;;;;;;10.35;3.80;;;7.20;99.90;;;;;;5054283;28;20171;-66
2021/12/20 06:58:24;;;;;;;13.02;3.85;;;7.20;99.90;;;;;;5054298;28;20179;-66
2021/12/20 07:00:53;;;;;;;18.38;4.75;;;7.30;99.90;;;;;;5053686;28;20532;-66
2021/12/20 07:03:20;;;;;;;11.77;3.63;;;7.30;99.90;;;;;;5054029;28;20624;-65
2021/12/20 07:05:46;;;;;;;15.25;4.00;;;7.20;99.90;;;;;;5054134;28;20210;-66
2021/12/20 07:08:12;;;;;;;18.15;4.47;;;7.30;99.90;;;;;;5054065;28;20171;-66
2021/12/20 07:10:38;;;;;;;13.32;4.40;;;7.30;99.90;;;;;;5053869;28;20207;-65
2021/12/20 07:13:03;;;;;;;12.75;4.13;;;7.20;99.90;;;;;;5053842;28;20643;-66
2021/12/20 07:15:31;;;;;;;9.55;4.32;;;7.20;99.90;;;;;;5053578;28;20227;-66
2021/12/20 07:17:57;;;;;;;10.70;3.70;;;7.30;99.90;;;;;;5053902;28;20392;-66
2021/12/20 07:20:23;;;;;;;13.25;4.05;;;7.30;99.90;;;;;;5053736;28;20189;-66
2021/12/20 07:22:49;;;;;;;12.98;4.80;;;7.30;99.90;;;;;;5053552;28;20162;-66
2021/12/20 07:25:14;;;;;;;14.10;4.47;;;7.30;99.90;;;;;;5053753;28;20174;-66
2021/12/20 07:27:40;;;;;;;14.65;4.95;;;7.30;99.90;;;;;;5053669;28;20179;-66
2021/12/20 07:30:06;;;;;;;19.25;4.40;;;7.40;99.90;;;;;;5052441;28;20214;-66
2021/12/20 07:32:32;;;;;;;15.88;4.60;;;7.20;99.90;;;;;;5053485;28;20185;-66
2021/12/20 07:34:58;;;;;;;13.20;4.82;;;7.30;99.90;;;;;;5053415;28;20183;-66
2021/12/20 07:37:27;;;;;;;16.20;5.63;;;7.20;99.90;;;;;;5053275;28;20191;-66
2021/12/20 07:39:53;;;;;;;17.23;5.60;;;7.20;99.90;;;;;;5053526;28;20201;-66
2021/12/20 07:42:19;;;;;;;16.85;4.88;;;7.10;99.90;;;;;;5053614;28;20178;-66
2021/12/20 07:44:44;;;;;;;15.30;4.57;;;7.00;99.90;;;;;;5053147;28;20640;-63
2021/12/20 07:47:10;;;;;;;11.23;4.55;;;7.00;99.90;;;;;;5051988;28;20521;-65
2021/12/20 07:49:36;;;;;;;16.33;4.78;;;6.90;99.90;;;;;;5053111;28;20190;-65
2021/12/20 07:52:03;;;;;;;31.27;7.57;;;6.90;99.90;;;;;;5053176;28;20175;-65
2021/12/20 07:54:29;;;;;;;48.75;11.98;;;6.90;99.90;;;;;;5053299;28;20304;-66
2021/12/20 07:56:54;;;;;;;23.20;6.03;;;6.90;99.90;;;;;;5053204;28;20228;-66
2021/12/20 07:59:20;;;;;;;16.58;4.30;;;7.00;99.90;;;;;;5053230;28;20176;-66
2021/12/20 08:01:46;;;;;;;16.48;4.35;;;6.90;99.90;;;;;;5053187;28;20174;-66
2021/12/20 08:04:11;;;;;;;14.48;4.47;;;7.00;99.90;;;;;;5052926;28;20621;-66
2021/12/20 08:06:37;;;;;;;17.60;5.90;;;6.90;99.90;;;;;;5053124;28;20186;-66
2021/12/20 08:09:04;;;;;;;22.13;6.35;;;6.90;99.90;;;;;;5053324;28;20708;-65
2021/12/20 08:11:29;;;;;;;19.50;6.60;;;6.90;99.90;;;;;;5053062;28;20267;-65
2021/12/20 08:13:55;;;;;;;33.30;8.55;;;7.00;99.90;;;;;;5053105;28;20645;-66
2021/12/20 08:16:21;;;;;;;19.35;7.72;;;7.00;99.90;;;;;;5052634;28;20278;-66
2021/12/20 08:18:48;;;;;;;18.15;6.85;;;7.00;99.90;;;;;;5052965;28;20178;-65
2021/12/20 08:21:15;;;;;;;19.15;5.47;;;6.90;99.90;;;;;;5052776;28;20189;-66
2021/12/20 08:23:44;;;;;;;18.02;6.70;;;7.00;99.90;;;;;;5053047;28;20179;-66
2021/12/20 08:26:10;;;;;;;15.80;6.15;;;7.00;99.90;;;;;;5052978;28;20231;-66
2021/12/20 08:28:36;;;;;;;13.90;4.65;;;6.90;99.90;;;;;;5053041;28;20180;-66
2021/12/20 08:31:03;;;;;;;14.27;4.20;;;7.00;99.90;;;;;;5052896;28;20232;-65
2021/12/20 08:33:29;;;;;;;15.23;4.70;;;7.00;99.90;;;;;;5052187;28;20209;-66
2021/12/20 08:35:55;;;;;;;14.13;4.88;;;7.10;99.90;;;;;;5052900;28;20205;-66
2021/12/20 08:38:20;;;;;;;18.45;5.10;;;7.00;99.90;;;;;;5052910;28;20518;-66
2021/12/20 08:40:47;;;;;;;17.88;5.75;;;7.00;99.90;;;;;;5056243;28;20194;-66
2021/12/20 08:43:14;;;;;;;21.30;6.53;;;7.00;99.90;;;;;;5056763;28;20303;-66
2021/12/20 08:45:40;;;;;;;19.75;6.97;;;7.00;99.90;;;;;;5056362;28;20213;-66
2021/12/20 08:48:06;;;;;;;15.63;5.10;;;7.10;99.90;;;;;;5056744;28;20185;-66
2021/12/20 08:50:32;;;;;;;15.55;5.80;;;7.20;99.90;;;;;;5056474;28;20302;-66
2021/12/20 08:52:58;;;;;;;14.60;4.47;;;7.20;99.90;;;;;;5056430;28;20182;-65
2021/12/20 08:55:24;;;;;;;13.27;4.03;;;7.30;99.90;;;;;;5056551;28;20175;-66
2021/12/20 08:57:50;;;;;;;14.50;5.05;;;7.30;99.90;;;;;;5055085;28;20202;-66
2021/12/20 09:00:21;;;;;;;14.93;5.03;;;7.30;99.90;;;;;;5056462;28;20230;-66
2021/12/20 09:02:47;;;;;;;13.70;4.32;;;7.30;99.90;;;;;;5056275;28;20162;-65
2021/12/20 09:05:13;;;;;;;14.07;4.32;;;7.30;99.90;;;;;;5056423;28;20179;-66
2021/12/20 09:07:41;;;;;;;14.82;4.28;;;7.30;99.90;;;;;;5055860;28;20186;-66
2021/12/20 09:10:07;;;;;;;12.50;4.50;;;7.30;99.90;;;;;;5056283;28;20215;-65
2021/12/20 09:12:33;;;;;;;15.20;5.28;;;7.30;99.90;;;;;;5056190;28;20171;-66
2021/12/20 09:14:58;;;;;;;11.68;4.50;;;7.30;99.90;;;;;;5055864;28;20274;-66
2021/12/20 09:17:24;;;;;;;16.15;6.10;;;7.30;99.90;;;;;;5055959;28;20712;-66
2021/12/20 09:19:51;;;;;;;28.73;10.48;;;7.50;99.90;;;;;;5055982;28;20197;-65
2021/12/20 09:22:17;;;;;;;23.02;8.80;;;7.50;99.90;;;;;;5056086;28;20189;-65
2021/12/20 09:24:44;;;;;;;25.13;7.20;;;7.50;99.90;;;;;;5055311;28;20175;-65
2021/12/20 09:27:12;;;;;;;56.13;15.85;;;7.40;99.90;;;;;;5055865;28;20168;-65
2021/12/20 09:29:38;;;;;;;42.88;12.88;;;7.50;99.90;;;;;;5055627;28;20635;-66
2021/12/20 09:32:04;;;;;;;29.73;10.90;;;7.50;99.90;;;;;;5055859;28;20185;-66
2021/12/20 09:34:30;;;;;;;32.17;11.65;;;7.60;99.90;;;;;;5055850;28;20577;-66
2021/12/20 09:36:56;;;;;;;17.67;6.47;;;7.50;99.90;;;;;;5055718;28;20644;-65
2021/12/20 09:39:22;;;;;;;11.55;4.63;;;7.40;99.90;;;;;;5055702;28;20244;-66
2021/12/20 09:44:16;;;;;;;20.00;8.20;;;7.60;99.90;;;;;;5055655;28;20184;-65
2021/12/20 09:46:42;;;;;;;23.77;10.18;;;7.60;99.90;;;;;;5055165;28;20189;-66
2021/12/20 09:49:09;;;;;;;16.90;5.65;;;7.60;99.90;;;;;;5055440;28;20261;-66
2021/12/20 09:51:35;;;;;;;14.48;6.40;;;7.70;99.90;;;;;;5054884;28;20668;-66
2021/12/20 09:54:01;;;;;;;17.88;6.63;;;7.70;99.90;;;;;;5054226;28;20530;-66
2021/12/20 09:56:29;;;;;;;15.38;5.65;;;7.80;99.90;;;;;;5055342;28;20183;-66
2021/12/20 09:58:57;;;;;;;19.40;6.55;;;7.90;99.90;;;;;;5055211;28;20178;-66
2021/12/20 10:01:24;;;;;;;16.23;5.03;;;7.80;99.90;;;;;;5055306;28;20195;-66
2021/12/20 10:03:52;;;;;;;15.15;5.22;;;7.90;99.90;;;;;;5055142;28;20520;-66
2021/12/20 10:06:19;;;;;;;18.60;6.40;;;8.00;99.90;;;;;;5055191;28;20182;-66
2021/12/20 10:08:53;;;;;;;12.35;5.25;;;8.00;99.90;;;;;;5055075;28;20217;-66
2021/12/20 10:11:24;;;;;;;19.25;5.90;;;8.00;99.90;;;;;;5055082;28;20203;-66
2021/12/20 10:14:01;;;;;;;16.15;6.22;;;8.00;99.90;;;;;;5055020;28;20232;-66
2021/12/20 10:16:28;;;;;;;20.05;6.13;;;8.10;99.90;;;;;;5054657;28;20648;-66
2021/12/20 10:18:53;;;;;;;17.05;5.53;;;8.20;99.90;;;;;;5054888;28;20171;-66
2021/12/20 10:21:19;;;;;;;12.23;4.15;;;7.90;99.90;;;;;;5054691;28;20536;-65
2021/12/20 10:23:48;;;;;;;9.20;3.85;;;7.70;99.90;;;;;;5054743;28;20176;-65
2021/12/20 10:26:21;;;;;;;27.40;5.65;;;7.70;99.90;;;;;;5054700;28;20643;-66
2021/12/20 10:28:51;;;;;;;14.02;4.47;;;7.60;99.90;;;;;;5054310;28;20657;-65
2021/12/20 10:31:20;;;;;;;14.80;4.53;;;7.70;99.90;;;;;;5054237;28;20199;-65
2021/12/20 10:34:00;;;;;;;14.48;4.45;;;7.70;99.90;;;;;;5054535;28;20193;-66
2021/12/20 10:36:27;;;;;;;12.95;4.63;;;7.80;99.90;;;;;;5054296;28;20510;-66
2021/12/20 10:38:56;;;;;;;10.70;4.15;;;7.70;99.90;;;;;;5054721;28;20178;-65
2021/12/20 10:41:36;;;;;;;9.20;3.90;;;7.70;99.90;;;;;;5054519;28;20168;-66
2021/12/20 10:44:19;;;;;;;15.98;5.68;;;7.70;99.90;;;;;;5054518;28;20228;-66
2021/12/20 10:46:50;;;;;;;15.45;6.32;;;7.70;99.90;;;;;;5054718;28;20199;-65
2021/12/20 10:49:18;;;;;;;17.45;5.25;;;7.60;99.90;;;;;;5054700;28;20175;-66
2021/12/20 10:51:47;;;;;;;15.23;4.00;;;7.80;99.90;;;;;;5054123;28;20211;-66
2021/12/20 10:54:17;;;;;;;10.77;3.80;;;7.80;99.90;;;;;;5054284;28;20207;-65
2021/12/20 10:57:05;;;;;;;11.20;3.75;;;7.90;99.90;;;;;;5054206;28;20187;-66
2021/12/20 10:59:36;;;;;;;15.45;3.28;;;7.90;99.90;;;;;;5052967;28;20181;-66
2021/12/20 11:04:56;;;;;;;9.98;2.95;;;7.80;99.90;;;;;;5053987;28;20207;-65
2021/12/20 11:09:53;;;;;;;7.30;2.80;;;7.80;99.80;;;;;;5053838;28;20313;-66
2021/12/20 11:12:25;;;;;;;8.93;3.00;;;7.80;99.90;;;;;;5053924;28;20175;-65
2021/12/20 11:14:55;;;;;;;7.60;3.10;;;7.70;99.10;;;;;;5053649;28;20170;-61
2021/12/20 11:17:21;;;;;;;10.23;3.40;;;7.70;99.90;;;;;;5053319;28;20179;-66
2021/12/20 11:19:50;;;;;;;8.15;3.28;;;7.70;99.90;;;;;;5053743;28;20178;-66
2021/12/20 11:22:19;;;;;;;9.02;3.53;;;7.70;99.90;;;;;;5053834;28;20179;-65
2021/12/20 11:24:54;;;;;;;10.02;4.43;;;7.70;99.90;;;;;;5052457;28;20174;-66
2021/12/20 11:27:24;;;;;;;9.70;3.17;;;7.80;99.90;;;;;;5053685;28;20288;-65
2021/12/20 11:29:52;;;;;;;13.13;3.80;;;7.80;99.90;;;;;;5053832;28;20158;-66
2021/12/20 11:32:20;;;;;;;10.32;3.28;;;7.70;99.90;;;;;;5053662;28;20513;-66
2021/12/20 11:34:46;;;;;;;13.68;3.97;;;7.60;99.90;;;;;;5053535;28;20168;-65
2021/12/20 11:37:20;;;;;;;10.90;3.88;;;7.70;99.90;;;;;;5053542;28;20175;-65
2021/12/20 11:39:47;;;;;;;8.52;2.78;;;7.60;99.90;;;;;;5053731;28;20169;-65
2021/12/20 11:42:13;;;;;;;10.38;4.10;;;7.50;99.90;;;;;;5053178;28;20663;-65
2021/12/20 11:44:44;;;;;;;9.05;3.13;;;7.50;99.90;;;;;;5053288;28;20174;-65
2021/12/20 11:47:23;;;;;;;10.50;3.92;;;7.60;99.90;;;;;;5053106;28;20651;-65
2021/12/20 11:49:59;;;;;;;13.20;5.22;;;7.60;99.90;;;;;;5053217;28;20167;-65
2021/12/20 11:52:30;;;;;;;13.13;4.15;;;7.80;99.90;;;;;;5053288;28;20229;-65
2021/12/20 11:54:56;;;;;;;7.72;3.47;;;7.60;99.90;;;;;;5053569;28;20226;-65
2021/12/20 11:57:28;;;;;;;9.73;3.80;;;7.60;99.90;;;;;;5053249;28;20178;-65
2021/12/20 11:59:56;;;;;;;10.43;3.75;;;7.60;99.90;;;;;;5053214;28;20176;-65
2021/12/20 12:02:31;;;;;;;9.38;3.25;;;7.60;99.90;;;;;;5053231;28;20171;-65
2021/12/20 12:05:17;;;;;;;12.82;3.33;;;7.70;99.90;;;;;;5053358;28;20527;-66
2021/12/20 12:07:45;;;;;;;12.93;3.20;;;7.80;99.90;;;;;;5053177;28;20571;-66
2021/12/20 12:10:16;;;;;;;11.00;4.07;;;7.80;99.90;;;;;;5052825;28;20199;-66
2021/12/20 12:12:45;;;;;;;12.02;5.70;;;7.70;99.90;;;;;;5053178;28;20539;-65
2021/12/20 12:15:32;;;;;;;11.57;6.72;;;7.70;99.90;;;;;;5055648;28;20217;-65
2021/12/20 12:18:04;;;;;;;17.48;8.75;;;7.70;99.90;;;;;;5057261;28;20193;-66
2021/12/20 12:20:47;;;;;;;25.10;16.60;;;7.70;99.90;;;;;;5057155;28;20201;-66
2021/12/20 12:23:16;;;;;;;15.85;6.60;;;7.70;99.90;;;;;;5057199;28;20171;-66
2021/12/20 12:25:54;;;;;;;18.52;7.05;;;7.70;99.90;;;;;;5057309;28;20163;-65
2021/12/20 12:28:26;;;;;;;16.10;6.00;;;7.70;99.90;;;;;;5057085;28;20170;-66
2021/12/20 12:31:03;;;;;;;19.52;7.93;;;7.80;99.90;;;;;;5056951;28;20198;-65
2021/12/20 12:33:32;;;;;;;21.55;12.35;;;7.70;99.90;;;;;;5057146;28;20162;-65
2021/12/20 12:36:02;;;;;;;29.23;19.40;;;7.80;99.90;;;;;;5056706;28;20694;-66
2021/12/20 12:38:51;;;;;;;20.60;15.02;;;7.80;99.90;;;;;;5056876;28;20175;-65
2021/12/20 12:41:22;;;;;;;11.05;6.18;;;7.90;99.90;;;;;;5053655;28;20199;-65
2021/12/20 12:43:47;;;;;;;11.18;3.67;;;7.90;99.90;;;;;;5056658;28;20167;-65
2021/12/20 12:46:13;;;;;;;11.18;4.35;;;7.90;99.90;;;;;;5056901;28;20179;-66
2021/12/20 12:48:43;;;;;;;13.18;5.05;;;7.90;99.90;;;;;;5056425;28;20210;-66
2021/12/20 12:51:12;;;;;;;14.27;4.45;;;7.90;99.90;;;;;;5056375;28;20203;-66
2021/12/20 12:53:37;;;;;;;10.45;3.50;;;7.90;99.90;;;;;;5057043;28;20178;-66
2021/12/20 12:56:30;;;;;;;27.63;5.63;;;7.90;99.90;;;;;;5056543;28;20179;-65
2021/12/20 12:59:17;;;;;;;9.73;3.03;;;8.00;99.90;;;;;;5053781;28;20191;-65
2021/12/20 13:02:07;;;;;;;10.95;3.38;;;7.90;99.90;;;;;;5056534;28;20176;-65
2021/12/20 13:04:44;;;;;;;10.88;3.63;;;7.70;99.90;;;;;;5056554;28;20166;-66
2021/12/20 13:07:10;;;;;;;12.00;3.50;;;7.70;99.90;;;;;;5056046;28;20217;-65
2021/12/20 13:09:43;;;;;;;9.93;3.08;;;7.80;99.90;;;;;;5056411;28;20624;-66
2021/12/20 13:12:23;;;;;;;10.80;3.30;;;7.70;99.90;;;;;;5056465;28;20213;-66
2021/12/20 13:17:54;;;;;;;12.70;5.50;;;7.80;99.90;;;;;;5054261;28;20195;-66